Time;durP1;ratioP1;P1;durP2;ratioP2;P2;SDS_P1;SDS_P2;PMS_P1;PMS_P2;Temp;Humidity;BMP_temperature;BMP_pressure;BME280_temperature;BME280_humidity;BME280_pressure;Samples;Min_cycle;Max_cycle;Signal;HPM_P1;HPM_P2
2023/02/13 00:02:22;;;;;;;;;;;17.70;45.80;;;;;;5001796;28;19902;-76
2023/02/13 00:04:48;;;;;;;;;;;17.70;45.60;;;;;;5001819;28;19916;-75
2023/02/13 00:07:13;;;;;;;;;;;17.70;45.50;;;;;;5001792;28;20091;-74
2023/02/13 00:09:39;;;;;;;;;;;17.70;45.50;;;;;;5001769;28;19933;-74
2023/02/13 00:12:05;;;;;;;;;;;17.70;45.30;;;;;;5001730;28;19901;-74
2023/02/13 00:14:33;;;;;;;;;;;17.70;45.20;;;;;;5001752;28;19932;-74
2023/02/13 00:16:59;;;;;;;;;;;17.80;45.10;;;;;;5001758;28;19910;-75
2023/02/13 00:19:24;;;;;;;;;;;17.90;45.10;;;;;;5001693;28;19909;-74
2023/02/13 00:21:50;;;;;;;;;;;17.90;45.00;;;;;;5001728;28;19941;-77
2023/02/13 00:24:16;;;;;;;;;;;17.90;44.90;;;;;;5000389;28;20204;-75
2023/02/13 00:26:41;;;;;;;;;;;17.90;44.70;;;;;;5001751;28;20261;-75
2023/02/13 00:29:07;;;;;;;;;;;17.90;44.90;;;;;;5001802;28;20205;-74
2023/02/13 00:31:32;;;;;;;;;;;17.90;44.80;;;;;;5001615;28;19902;-76
2023/02/13 00:33:58;;;;;;;;;;;17.90;44.70;;;;;;5001630;28;19960;-75
2023/02/13 00:36:24;;;;;;;;;;;17.90;44.60;;;;;;5001423;28;20360;-76
2023/02/13 00:38:50;;;;;;;;;;;17.90;44.60;;;;;;5001461;28;19909;-75
2023/02/13 00:41:16;;;;;;;;;;;17.80;44.70;;;;;;5001513;28;19972;-77
2023/02/13 00:43:42;;;;;;;;;;;17.70;44.80;;;;;;5000300;28;19952;-73
2023/02/13 00:46:07;;;;;;;;;;;17.60;45.10;;;;;;5001753;28;19905;-75
2023/02/13 00:48:33;;;;;;;;;;;17.50;45.20;;;;;;5001405;28;19909;-76
2023/02/13 00:50:59;;;;;;;;;;;17.40;45.50;;;;;;5000067;28;19917;-77
2023/02/13 00:53:25;;;;;;;;;;;17.30;45.60;;;;;;5001244;28;20012;-72
2023/02/13 00:55:50;;;;;;;;;;;17.30;45.80;;;;;;5003083;28;19931;-74
2023/02/13 00:58:16;;;;;;;;;;;17.20;46.10;;;;;;5005153;28;20440;-75
2023/02/13 01:00:42;;;;;;;;;;;17.10;46.20;;;;;;5005110;28;19913;-74
2023/02/13 01:03:08;;;;;;;;;;;17.10;46.30;;;;;;5005198;28;19977;-74
2023/02/13 01:05:33;;;;;;;;;;;17.10;46.40;;;;;;5004878;28;19909;-76
2023/02/13 01:07:59;;;;;;;;;;;17.10;46.50;;;;;;5004949;28;19916;-74
2023/02/13 01:10:25;;;;;;;;;;;17.00;46.40;;;;;;5004899;28;19928;-76
2023/02/13 01:12:50;;;;;;;;;;;17.00;46.50;;;;;;5003570;28;19910;-74
2023/02/13 01:15:16;;;;;;;;;;;17.00;46.60;;;;;;5004773;28;20109;-75
2023/02/13 01:17:42;;;;;;;;;;;17.00;46.50;;;;;;5004726;28;19945;-74
2023/02/13 01:20:09;;;;;;;;;;;17.00;46.50;;;;;;5004582;28;19913;-75
2023/02/13 01:22:34;;;;;;;;;;;17.10;46.50;;;;;;5004661;28;20156;-75
2023/02/13 01:25:00;;;;;;;;;;;17.20;46.60;;;;;;5004562;28;19949;-76
2023/02/13 01:27:28;;;;;;;;;;;17.30;46.50;;;;;;5004524;28;19921;-73
2023/02/13 01:29:54;;;;;;;;;;;17.40;46.90;;;;;;5004502;28;20483;-74
2023/02/13 01:32:20;;;;;;;;;;;17.40;46.10;;;;;;5004370;28;19910;-75
2023/02/13 01:34:45;;;;;;;;;;;17.50;45.90;;;;;;5004383;28;20217;-74
2023/02/13 01:37:11;;;;;;;;;;;17.50;45.70;;;;;;5004394;28;19917;-74
2023/02/13 01:39:37;;;;;;;;;;;17.50;45.60;;;;;;5004433;28;19901;-75
2023/02/13 01:42:02;;;;;;;;;;;17.50;45.60;;;;;;5004143;28;19914;-74
2023/02/13 01:44:43;;;;;;;;;;;17.60;45.50;;;;;;5004291;28;19917;-75
2023/02/13 01:47:09;;;;;;;;;;;17.60;45.40;;;;;;5004264;28;19902;-76
2023/02/13 01:49:35;;;;;;;;;;;17.60;45.20;;;;;;5004162;28;19906;-75
2023/02/13 01:52:01;;;;;;;;;;;17.70;45.00;;;;;;5004338;28;19918;-73
2023/02/13 01:54:31;;;;;;;;;;;17.70;44.90;;;;;;5002978;28;19909;-75
2023/02/13 01:56:59;;;;;;;;;;;17.70;44.80;;;;;;5002792;28;19917;-75
2023/02/13 01:59:32;;;;;;;;;;;17.70;44.80;;;;;;5002418;28;19944;-75
2023/02/13 02:01:58;;;;;;;;;;;17.70;45.00;;;;;;5003940;28;19910;-75
2023/02/13 02:04:28;;;;;;;;;;;17.70;44.90;;;;;;5003839;28;19909;-75
2023/02/13 02:06:57;;;;;;;;;;;17.80;44.80;;;;;;5003056;28;19955;-75
2023/02/13 02:09:25;;;;;;;;;;;17.80;44.70;;;;;;5003967;28;19906;-76
2023/02/13 02:11:54;;;;;;;;;;;17.80;44.60;;;;;;5003786;28;19910;-75
2023/02/13 02:14:20;;;;;;;;;;;17.80;44.60;;;;;;5003900;28;20125;-76
2023/02/13 02:16:46;;;;;;;;;;;17.80;44.50;;;;;;5003797;28;19957;-76
2023/02/13 02:19:18;;;;;;;;;;;17.80;44.50;;;;;;5003702;28;19909;-75
2023/02/13 02:21:56;;;;;;;;;;;17.70;44.60;;;;;;5003626;28;20391;-74
2023/02/13 02:24:24;;;;;;;;;;;17.70;44.60;;;;;;5003685;28;19941;-74
2023/02/13 02:26:58;;;;;;;;;;;17.60;44.90;;;;;;5003536;28;19902;-76
2023/02/13 02:29:30;;;;;;;;;;;17.50;45.00;;;;;;5003522;28;19909;-73
2023/02/13 02:32:14;;;;;;;;;;;17.40;45.30;;;;;;5003484;28;19901;-74
2023/02/13 02:34:53;;;;;;;;;;;17.30;45.40;;;;;;5003766;28;19910;-75
2023/02/13 02:37:21;;;;;;;;;;;17.30;45.70;;;;;;5003594;28;19902;-75
2023/02/13 02:39:47;;;;;;;;;;;17.20;45.80;;;;;;5003339;28;19996;-74
2023/02/13 02:42:15;;;;;;;;;;;17.10;46.00;;;;;;5003258;28;20216;-74
2023/02/13 02:44:47;;;;;;;;;;;17.10;46.10;;;;;;5003395;28;19908;-74
2023/02/13 02:50:20;;;;;;;;;;;17.00;46.30;;;;;;5003015;28;20201;-75
2023/02/13 02:52:55;;;;;;;;;;;17.00;46.50;;;;;;5002973;28;20141;-76
2023/02/13 02:55:31;;;;;;;;;;;16.90;46.40;;;;;;5001740;28;19972;-76
2023/02/13 03:06:43;;;;;;;;;;;17.00;46.50;;;;;;5002668;28;19917;-73
2023/02/13 03:14:43;;;;;;;;;;;17.30;45.90;;;;;;5002580;28;19914;-75
2023/02/13 03:22:44;;;;;;;;;;;17.40;45.60;;;;;;5002317;28;19984;-75
2023/02/13 03:25:33;;;;;;;;;;;17.40;45.60;;;;;;5002273;28;19909;-76
2023/02/13 03:31:28;;;;;;;;;;;17.50;46.00;;;;;;5002226;28;19933;-74
2023/02/13 03:33:57;;;;;;;;;;;17.50;45.10;;;;;;5002011;28;19910;-75
2023/02/13 03:39:09;;;;;;;;;;;17.50;45.00;;;;;;5002038;28;19932;-76
2023/02/13 03:41:38;;;;;;;;;;;17.50;45.00;;;;;;5002006;28;20213;-75
2023/02/13 03:44:10;;;;;;;;;;;17.60;45.00;;;;;;5001838;28;19932;-75
2023/02/13 03:46:38;;;;;;;;;;;17.60;45.10;;;;;;5000877;28;19909;-76
2023/02/13 03:51:57;;;;;;;;;;;17.60;44.80;;;;;;5001895;28;20011;-75
2023/02/13 04:00:08;;;;;;;;;;;17.60;44.60;;;;;;5001686;28;19920;-71
2023/02/13 04:02:39;;;;;;;;;;;17.60;44.70;;;;;;5001775;28;19936;-74
2023/02/13 04:05:11;;;;;;;;;;;17.60;44.80;;;;;;5002115;28;19984;-72
2023/02/13 04:07:37;;;;;;;;;;;17.60;44.70;;;;;;5001924;28;19901;-74
2023/02/13 04:10:06;;;;;;;;;;;17.60;44.90;;;;;;5001864;28;19913;-74
2023/02/13 04:12:46;;;;;;;;;;;17.50;44.90;;;;;;5001875;28;19953;-71
2023/02/13 04:15:15;;;;;;;;;;;17.50;45.10;;;;;;5001849;28;19937;-75
2023/02/13 04:17:44;;;;;;;;;;;17.40;45.30;;;;;;5001732;28;19909;-77
2023/02/13 04:20:10;;;;;;;;;;;17.30;45.50;;;;;;5001476;28;19914;-76
2023/02/13 04:22:40;;;;;;;;;;;17.20;45.60;;;;;;5001606;28;19940;-76
2023/02/13 04:25:06;;;;;;;;;;;17.20;45.80;;;;;;5001869;28;20253;-77
2023/02/13 04:27:31;;;;;;;;;;;17.10;45.80;;;;;;5001858;28;19910;-75
2023/02/13 04:29:57;;;;;;;;;;;17.00;45.90;;;;;;5002003;28;19909;-76
2023/02/13 04:32:23;;;;;;;;;;;17.00;46.20;;;;;;5008054;28;19901;-75
2023/02/13 04:34:48;;;;;;;;;;;16.90;46.30;;;;;;5008086;28;20075;-75
2023/02/13 04:37:14;;;;;;;;;;;16.80;46.40;;;;;;5008067;28;19917;-75
2023/02/13 04:39:39;;;;;;;;;;;16.80;46.40;;;;;;5007959;28;20201;-74
2023/02/13 04:42:05;;;;;;;;;;;16.80;46.50;;;;;;5007864;28;19913;-72
2023/02/13 04:44:30;;;;;;;;;;;16.70;46.60;;;;;;5007994;28;20189;-75
2023/02/13 04:46:56;;;;;;;;;;;16.80;46.60;;;;;;5007857;28;19902;-76
2023/02/13 04:49:21;;;;;;;;;;;16.80;46.50;;;;;;5007917;28;19901;-74
2023/02/13 04:51:47;;;;;;;;;;;16.90;46.30;;;;;;5007929;28;19980;-75
2023/02/13 04:54:12;;;;;;;;;;;17.00;46.20;;;;;;5007630;28;19936;-74
2023/02/13 04:56:38;;;;;;;;;;;17.10;46.00;;;;;;5007769;28;20200;-75
2023/02/13 04:59:03;;;;;;;;;;;17.20;45.80;;;;;;5008210;28;19909;-76
2023/02/13 05:01:29;;;;;;;;;;;17.20;45.70;;;;;;5007627;28;19914;-74
2023/02/13 05:03:54;;;;;;;;;;;17.20;45.60;;;;;;5007516;28;19932;-75
2023/02/13 05:06:20;;;;;;;;;;;17.30;45.50;;;;;;5007674;28;19913;-76
2023/02/13 05:08:45;;;;;;;;;;;17.30;45.60;;;;;;5006384;28;19981;-74
2023/02/13 05:11:11;;;;;;;;;;;17.30;45.50;;;;;;5006294;28;19914;-73
2023/02/13 05:13:36;;;;;;;;;;;17.40;45.40;;;;;;5007586;28;19902;-76
2023/02/13 05:16:02;;;;;;;;;;;17.40;45.30;;;;;;5007528;28;19984;-76
2023/02/13 05:18:27;;;;;;;;;;;17.40;45.30;;;;;;5007624;28;19932;-74
2023/02/13 05:23:37;;;;;;;;;;;17.50;45.10;;;;;;5007508;28;19936;-76
2023/02/13 05:26:03;;;;;;;;;;;17.40;45.20;;;;;;5007403;28;20118;-75
2023/02/13 05:31:12;;;;;;;;;;;17.40;45.20;;;;;;5007410;28;19968;-75
2023/02/13 05:33:38;;;;;;;;;;;17.30;45.20;;;;;;5007412;28;19917;-74
2023/02/13 05:36:04;;;;;;;;;;;17.20;45.30;;;;;;5007294;28;20194;-76
2023/02/13 05:38:29;;;;;;;;;;;17.10;45.50;;;;;;5007335;28;19916;-76
2023/02/13 05:40:57;;;;;;;;;;;17.10;45.70;;;;;;5007096;28;19906;-76
2023/02/13 05:43:22;;;;;;;;;;;17.00;45.80;;;;;;5003233;28;19908;-73
2023/02/13 05:45:48;;;;;;;;;;;16.90;46.00;;;;;;5004180;28;19910;-73
2023/02/13 05:48:14;;;;;;;;;;;16.80;46.10;;;;;;5004180;28;19910;-76
2023/02/13 05:50:39;;;;;;;;;;;16.80;46.20;;;;;;5004163;28;19933;-74
2023/02/13 05:53:05;;;;;;;;;;;16.70;46.30;;;;;;5003930;28;19920;-76
2023/02/13 05:55:30;;;;;;;;;;;16.70;46.50;;;;;;5003977;28;19902;-75
2023/02/13 05:57:56;;;;;;;;;;;16.60;46.60;;;;;;5004010;28;20499;-74
2023/02/13 06:00:22;;;;;;;;;;;16.70;46.60;;;;;;5003778;28;19968;-74
2023/02/13 06:02:47;;;;;;;;;;;16.70;46.40;;;;;;5003875;28;19902;-75
2023/02/13 06:05:13;;;;;;;;;;;16.80;46.30;;;;;;5003792;28;20000;-74
2023/02/13 06:07:38;;;;;;;;;;;16.90;46.20;;;;;;5003794;28;20141;-74
2023/02/13 06:10:04;;;;;;;;;;;17.00;46.00;;;;;;5002348;28;19986;-74
2023/02/13 06:12:30;;;;;;;;;;;17.00;45.70;;;;;;5003787;28;20101;-76
2023/02/13 06:14:55;;;;;;;;;;;17.10;45.60;;;;;;5003743;28;19902;-75
2023/02/13 06:17:21;;;;;;;;;;;17.10;45.50;;;;;;5003732;28;19909;-75
2023/02/13 06:19:46;;;;;;;;;;;17.20;45.40;;;;;;5003715;28;19910;-76
2023/02/13 06:22:12;;;;;;;;;;;17.20;45.50;;;;;;5003674;28;19913;-75
2023/02/13 06:24:37;;;;;;;;;;;17.30;45.50;;;;;;5003829;28;19910;-76
2023/02/13 06:27:03;;;;;;;;;;;17.30;45.40;;;;;;5003632;28;19944;-75
2023/02/13 06:29:30;;;;;;;;;;;17.30;45.30;;;;;;5003680;28;19906;-74
2023/02/13 06:31:56;;;;;;;;;;;17.40;45.90;;;;;;5003569;28;19941;-75
2023/02/13 06:34:21;;;;;;;;;;;17.50;45.20;;;;;;5003452;28;20219;-75
2023/02/13 06:36:47;;;;;;;;;;;17.40;45.10;;;;;;5003388;28;19949;-77
2023/02/13 06:39:12;;;;;;;;;;;17.40;45.10;;;;;;5003362;28;19921;-73
2023/02/13 06:41:38;;;;;;;;;;;17.30;45.20;;;;;;5003167;28;19912;-75
2023/02/13 06:44:04;;;;;;;;;;;17.20;45.30;;;;;;5003147;28;19910;-74
2023/02/13 06:46:29;;;;;;;;;;;17.20;45.60;;;;;;5003051;28;19913;-74
2023/02/13 06:48:55;;;;;;;;;;;17.10;45.60;;;;;;5002917;28;19925;-74
2023/02/13 06:51:20;;;;;;;;;;;17.00;45.70;;;;;;5001909;28;19989;-75
2023/02/13 06:53:46;;;;;;;;;;;16.90;45.90;;;;;;5002555;28;19921;-75
2023/02/13 06:56:11;;;;;;;;;;;16.90;46.00;;;;;;5002911;28;19902;-75
2023/02/13 06:58:38;;;;;;;;;;;16.80;46.20;;;;;;5002936;28;19948;-74
2023/02/13 07:01:04;;;;;;;;;;;16.70;46.30;;;;;;5002831;28;19921;-75
2023/02/13 07:03:30;;;;;;;;;;;16.70;46.30;;;;;;5002807;28;19909;-75
2023/02/13 07:05:55;;;;;;;;;;;16.70;46.40;;;;;;5002766;28;19981;-74
2023/02/13 07:08:21;;;;;;;;;;;16.70;46.50;;;;;;5002619;28;20124;-74
2023/02/13 07:10:47;;;;;;;;;;;16.70;46.50;;;;;;5002678;28;19901;-75
2023/02/13 07:13:12;;;;;;;;;;;16.80;46.40;;;;;;5002519;28;19905;-76
2023/02/13 07:15:38;;;;;;;;;;;16.90;46.30;;;;;;5002619;28;19949;-75
2023/02/13 07:18:04;;;;;;;;;;;17.00;46.10;;;;;;5002404;28;19960;-75
2023/02/13 07:20:29;;;;;;;;;;;17.10;45.90;;;;;;5002386;28;20225;-75
2023/02/13 07:22:59;;;;;;;;;;;17.20;45.80;;;;;;5002501;28;19917;-74
2023/02/13 07:25:25;;;;;;;;;;;17.30;45.60;;;;;;5002297;28;19909;-74
2023/02/13 07:27:50;;;;;;;;;;;17.30;45.40;;;;;;5002363;28;19917;-75
2023/02/13 07:30:16;;;;;;;;;;;17.40;45.40;;;;;;5002192;28;19913;-73
2023/02/13 07:32:41;;;;;;;;;;;17.50;45.20;;;;;;5002047;28;19940;-72
2023/02/13 07:35:07;;;;;;;;;;;17.60;45.20;;;;;;5002206;28;19978;-74
2023/02/13 07:37:32;;;;;;;;;;;17.70;45.00;;;;;;5002093;28;19908;-77
2023/02/13 07:39:58;;;;;;;;;;;17.80;44.80;;;;;;5002103;28;19973;-75
2023/02/13 07:42:23;;;;;;;;;;;17.90;44.70;;;;;;5002105;28;19918;-74
2023/02/13 07:44:49;;;;;;;;;;;17.90;44.50;;;;;;5001939;28;19909;-74
2023/02/13 07:47:16;;;;;;;;;;;17.90;44.30;;;;;;5002108;28;19901;-74
2023/02/13 07:49:42;;;;;;;;;;;17.90;44.30;;;;;;5002065;28;19916;-73
2023/02/13 07:52:07;;;;;;;;;;;17.80;44.40;;;;;;5001928;28;19969;-75
2023/02/13 07:54:33;;;;;;;;;;;17.70;44.60;;;;;;5002079;28;19902;-75
2023/02/13 07:56:58;;;;;;;;;;;17.70;44.70;;;;;;5002009;28;19948;-76
2023/02/13 07:59:24;;;;;;;;;;;17.60;44.80;;;;;;5001898;28;20240;-75
2023/02/13 08:01:50;;;;;;;;;;;17.60;44.90;;;;;;5001641;28;19913;-75
2023/02/13 08:04:15;;;;;;;;;;;17.50;45.10;;;;;;5001415;28;19901;-76
2023/02/13 08:06:41;;;;;;;;;;;17.50;45.20;;;;;;5001430;28;19905;-75
2023/02/13 08:11:52;;;;;;;;;;;17.40;45.40;;;;;;5001806;28;19992;-75
2023/02/13 08:14:27;;;;;;;;;;;17.40;45.50;;;;;;5001840;28;19902;-76
2023/02/13 08:16:53;;;;;;;;;;;17.30;45.60;;;;;;5000564;28;20197;-75
2023/02/13 08:19:18;;;;;;;;;;;17.30;45.70;;;;;;5001693;28;19905;-76
2023/02/13 08:21:44;;;;;;;;;;;17.30;45.80;;;;;;5001641;28;19984;-77
2023/02/13 08:24:10;;;;;;;;;;;17.20;45.70;;;;;;5001635;28;19917;-74
2023/02/13 08:26:36;;;;;;;;;;;17.20;45.70;;;;;;5001579;28;19910;-75
2023/02/13 08:29:01;;;;;;;;;;;17.20;45.90;;;;;;5001405;28;19940;-75
2023/02/13 08:31:27;;;;;;;;;;;17.20;45.90;;;;;;5001522;28;20202;-74
2023/02/13 08:33:52;;;;;;;;;;;17.30;46.00;;;;;;5001304;28;19945;-76
2023/02/13 08:36:18;;;;;;;;;;;17.40;46.00;;;;;;5000126;28;19902;-75
2023/02/13 08:38:47;;;;;;;;;;;17.50;45.90;;;;;;5001288;28;20359;-75
2023/02/13 08:41:12;;;;;;;;;;;17.60;45.60;;;;;;4999962;28;20252;-74
2023/02/13 08:43:38;;;;;;;;;;;17.80;45.40;;;;;;5001266;28;19909;-76
2023/02/13 08:46:04;;;;;;;;;;;17.90;45.10;;;;;;5001220;28;20140;-75
2023/02/13 08:48:29;;;;;;;;;;;18.00;45.00;;;;;;5001314;28;19910;-76
2023/02/13 08:50:55;;;;;;;;;;;18.10;44.60;;;;;;5001222;28;20000;-74
2023/02/13 08:53:20;;;;;;;;;;;18.10;44.60;;;;;;4999806;28;19921;-75
2023/02/13 08:55:55;;;;;;;;;;;18.20;44.50;;;;;;5001105;28;20213;-75
2023/02/13 08:58:21;;;;;;;;;;;18.20;44.30;;;;;;5001252;28;19910;-74
2023/02/13 09:00:47;;;;;;;;;;;18.30;44.20;;;;;;5001110;28;19928;-75
2023/02/13 09:03:12;;;;;;;;;;;18.30;44.00;;;;;;4999909;28;19956;-74
2023/02/13 09:05:38;;;;;;;;;;;18.40;44.00;;;;;;5001319;28;19910;-74
2023/02/13 09:08:04;;;;;;;;;;;18.40;43.90;;;;;;5001040;28;20382;-75
2023/02/13 09:10:32;;;;;;;;;;;18.30;43.90;;;;;;5001206;28;19917;-73
2023/02/13 09:13:00;;;;;;;;;;;18.20;43.90;;;;;;4999912;28;20086;-75
2023/02/13 09:15:25;;;;;;;;;;;18.20;44.20;;;;;;5001126;28;20193;-75
2023/02/13 09:17:51;;;;;;;;;;;18.10;44.30;;;;;;5004366;28;19920;-74
2023/02/13 09:20:16;;;;;;;;;;;18.10;44.50;;;;;;5004670;28;19941;-75
2023/02/13 09:22:42;;;;;;;;;;;18.00;44.60;;;;;;5004823;28;19905;-76
2023/02/13 09:25:08;;;;;;;;;;;18.00;44.60;;;;;;5004659;28;19905;-75
2023/02/13 09:27:34;;;;;;;;;;;18.00;44.60;;;;;;5004563;28;19910;-75
2023/02/13 09:30:00;;;;;;;;;;;17.90;44.70;;;;;;5004494;28;19916;-75
2023/02/13 09:32:26;;;;;;;;;;;18.00;44.90;;;;;;5004492;28;19965;-75
2023/02/13 09:34:51;;;;;;;;;;;18.00;45.10;;;;;;5004458;28;20278;-72
2023/02/13 09:37:17;;;;;;;;;;;17.90;45.00;;;;;;5004418;28;19914;-75
2023/02/13 09:39:43;;;;;;;;;;;17.90;44.90;;;;;;5004356;28;20181;-75
2023/02/13 09:42:26;;;;;;;;;;;17.90;44.80;;;;;;5004415;28;19996;-71
2023/02/13 09:44:54;;;;;;;;;;;17.90;44.90;;;;;;5004260;28;19909;-73
2023/02/13 09:47:27;;;;;;;;;;;17.80;44.80;;;;;;5003067;28;20109;-76
2023/02/13 09:49:55;;;;;;;;;;;17.80;45.10;;;;;;5004247;28;19909;-76
2023/02/13 09:52:20;;;;;;;;;;;17.80;45.10;;;;;;5004065;28;19949;-75
2023/02/13 09:54:46;;;;;;;;;;;17.80;45.10;;;;;;5004087;28;19941;-76
2023/02/13 09:57:33;;;;;;;;;;;17.80;44.90;;;;;;5004100;28;19977;-76
2023/02/13 10:00:18;;;;;;;;;;;17.80;44.90;;;;;;5003928;28;20359;-74
2023/02/13 10:02:56;;;;;;;;;;;17.80;45.00;;;;;;5004015;28;20138;-75
2023/02/13 10:05:40;;;;;;;;;;;17.80;45.00;;;;;;5002672;28;20093;-73
2023/02/13 10:08:11;;;;;;;;;;;17.80;45.70;;;;;;5004032;28;19902;-76
2023/02/13 10:10:43;;;;;;;;;;;17.80;44.80;;;;;;5003915;28;19964;-75
2023/02/13 10:13:17;;;;;;;;;;;17.80;45.00;;;;;;5003832;28;19901;-76
2023/02/13 10:16:01;;;;;;;;;;;17.90;45.00;;;;;;5003878;28;20145;-75
2023/02/13 10:18:41;;;;;;;;;;;18.00;45.00;;;;;;5002708;28;19902;-72
2023/02/13 10:21:07;;;;;;;;;;;18.00;44.80;;;;;;5003999;28;19920;-75
2023/02/13 10:23:49;;;;;;;;;;;18.20;44.60;;;;;;5003725;28;19913;-73
2023/02/13 10:26:45;;;;;;;;;;;18.20;44.50;;;;;;5003656;28;19906;-76
2023/02/13 10:32:03;;;;;;;;;;;18.30;44.40;;;;;;5003498;28;19908;-74
2023/02/13 10:34:33;;;;;;;;;;;18.40;44.30;;;;;;5002153;28;20094;-75
2023/02/13 10:36:59;;;;;;;;;;;18.40;44.20;;;;;;5002215;28;19917;-72
2023/02/13 10:39:26;;;;;;;;;;;18.40;44.10;;;;;;5003427;28;19917;-75
2023/02/13 10:42:00;;;;;;;;;;;18.40;44.10;;;;;;5003446;28;20143;-76
2023/02/13 10:44:26;;;;;;;;;;;18.40;44.10;;;;;;5003190;28;19909;-75
2023/02/13 10:47:10;;;;;;;;;;;18.30;44.20;;;;;;5003299;28;20181;-76
2023/02/13 10:49:41;;;;;;;;;;;18.30;44.40;;;;;;5003241;28;20275;-72
2023/02/13 10:52:14;;;;;;;;;;;18.20;44.50;;;;;;5002937;28;19916;-78
2023/02/13 10:54:50;;;;;;;;;;;18.20;44.50;;;;;;5003020;28;19977;-76
2023/02/13 10:57:29;;;;;;;;;;;18.20;44.50;;;;;;5003066;28;19990;-75
2023/02/13 10:59:58;;;;;;;;;;;18.20;44.60;;;;;;5003025;28;19909;-76
2023/02/13 11:02:24;;;;;;;;;;;18.20;44.50;;;;;;5002990;28;19914;-76
2023/02/13 11:04:51;;;;;;;;;;;18.10;44.60;;;;;;5002875;28;20189;-77
2023/02/13 11:07:19;;;;;;;;;;;18.10;44.70;;;;;;5002905;28;19944;-76
2023/02/13 11:09:46;;;;;;;;;;;18.20;44.70;;;;;;5002792;28;19910;-75
2023/02/13 11:12:25;;;;;;;;;;;18.10;44.70;;;;;;5002928;28;20154;-72
2023/02/13 11:14:59;;;;;;;;;;;18.10;44.60;;;;;;5002787;28;19932;-75
2023/02/13 11:17:26;;;;;;;;;;;18.10;44.70;;;;;;5002657;28;19914;-74
2023/02/13 11:19:53;;;;;;;;;;;18.10;44.80;;;;;;5001323;28;20141;-73
2023/02/13 11:22:32;;;;;;;;;;;18.10;44.70;;;;;;5002501;28;19909;-76
2023/02/13 11:25:01;;;;;;;;;;;18.10;44.70;;;;;;5001456;28;19902;-76
2023/02/13 11:27:29;;;;;;;;;;;18.10;44.80;;;;;;5001245;28;19909;-73
2023/02/13 11:29:58;;;;;;;;;;;18.10;44.90;;;;;;5002370;28;19917;-74
2023/02/13 11:32:28;;;;;;;;;;;18.10;45.00;;;;;;5002646;28;19909;-75
2023/02/13 11:34:54;;;;;;;;;;;18.10;45.00;;;;;;5002616;28;19916;-76
2023/02/13 11:37:22;;;;;;;;;;;18.10;45.10;;;;;;5002401;28;19902;-76
2023/02/13 11:39:48;;;;;;;;;;;18.10;45.00;;;;;;5000310;28;19906;-75
2023/02/13 11:42:31;;;;;;;;;;;18.10;45.00;;;;;;5002375;28;19906;-77
2023/02/13 11:45:16;;;;;;;;;;;18.10;45.10;;;;;;5000894;28;19905;-77
2023/02/13 11:47:42;;;;;;;;;;;18.00;45.00;;;;;;4995466;28;19910;-76
2023/02/13 11:50:23;;;;;;;;;;;18.10;45.10;;;;;;5002788;28;20200;-74
2023/02/13 11:53:03;;;;;;;;;;;18.10;45.10;;;;;;5002029;28;19977;-76
2023/02/13 11:55:32;;;;;;;;;;;18.10;45.10;;;;;;5002282;28;20078;-74
2023/02/13 11:57:58;;;;;;;;;;;18.10;45.10;;;;;;5002228;28;19932;-76
2023/02/13 12:00:31;;;;;;;;;;;18.10;45.10;;;;;;5001947;28;20182;-74
2023/02/13 12:02:56;;;;;;;;;;;18.10;45.10;;;;;;5001880;28;19908;-75
2023/02/13 12:05:23;;;;;;;;;;;18.10;45.10;;;;;;5000525;28;19940;-72
2023/02/13 12:07:48;;;;;;;;;;;18.10;45.10;;;;;;5001885;28;19909;-75
2023/02/13 12:10:14;;;;;;;;;;;18.10;45.20;;;;;;5001833;28;19902;-76
2023/02/13 12:12:43;;;;;;;;;;;18.10;45.10;;;;;;5001812;28;19909;-72
2023/02/13 12:15:28;;;;;;;;;;;18.10;45.20;;;;;;5001711;28;19901;-75
2023/02/13 12:18:13;;;;;;;;;;;18.10;45.10;;;;;;5001257;28;19956;-74
2023/02/13 12:20:41;;;;;;;;;;;18.10;45.10;;;;;;5000394;28;20012;-76
2023/02/13 12:23:27;;;;;;;;;;;18.10;45.10;;;;;;5000372;28;19910;-76
2023/02/13 12:26:02;;;;;;;;;;;18.10;45.10;;;;;;5001200;28;19988;-72
2023/02/13 12:28:35;;;;;;;;;;;18.10;45.10;;;;;;5001593;28;19933;-73
2023/02/13 12:31:27;;;;;;;;;;;18.10;45.10;;;;;;5001725;28;19910;-72
2023/02/13 12:34:02;;;;;;;;;;;18.20;45.20;;;;;;4997332;28;20220;-73
2023/02/13 12:36:34;;;;;;;;;;;18.10;45.20;;;;;;5000293;28;19981;-74
2023/02/13 12:39:18;;;;;;;;;;;18.10;45.20;;;;;;5001572;28;20243;-77
2023/02/13 12:41:49;;;;;;;;;;;18.10;45.20;;;;;;5001300;28;19910;-76
2023/02/13 12:44:15;;;;;;;;;;;18.10;45.30;;;;;;5001453;28;19910;-74
2023/02/13 12:46:41;;;;;;;;;;;18.10;45.30;;;;;;5000206;28;19932;-74
2023/02/13 12:49:12;;;;;;;;;;;18.20;45.30;;;;;;5001315;28;19916;-73
2023/02/13 12:51:38;;;;;;;;;;;18.10;45.30;;;;;;5002864;28;19909;-72
2023/02/13 12:54:12;;;;;;;;;;;18.10;45.40;;;;;;5004017;28;19929;-76
2023/02/13 12:56:56;;;;;;;;;;;18.20;45.50;;;;;;5004065;28;19916;-76
2023/02/13 12:59:34;;;;;;;;;;;18.20;45.40;;;;;;5005124;28;19909;-75
2023/02/13 13:02:09;;;;;;;;;;;18.20;45.40;;;;;;5005074;28;19914;-75
2023/02/13 13:04:40;;;;;;;;;;;18.20;45.40;;;;;;5003901;28;19907;-73
2023/02/13 13:07:23;;;;;;;;;;;18.20;45.40;;;;;;5005168;28;19902;-73
2023/02/13 13:09:52;;;;;;;;;;;18.20;45.30;;;;;;5005302;28;19977;-73
2023/02/13 13:12:23;;;;;;;;;;;18.30;45.20;;;;;;5004027;28;20093;-73
2023/02/13 13:15:12;;;;;;;;;;;18.40;45.10;;;;;;5005093;28;19980;-76
2023/02/13 13:17:41;;;;;;;;;;;18.40;45.00;;;;;;4999725;28;19925;-76
2023/02/13 13:20:09;;;;;;;;;;;18.40;44.90;;;;;;5003625;28;19941;-74
2023/02/13 13:22:37;;;;;;;;;;;18.40;45.00;;;;;;5004987;28;19959;-73
2023/02/13 13:25:04;;;;;;;;;;;18.40;45.00;;;;;;5003634;28;20181;-75
2023/02/13 13:27:32;;;;;;;;;;;18.50;45.00;;;;;;5005053;28;19948;-75
2023/02/13 13:30:18;;;;;;;;;;;18.50;44.90;;;;;;5004893;28;19910;-74
2023/02/13 13:32:44;;;;;;;;;;;18.60;44.80;;;;;;5004843;28;19910;-73
2023/02/13 13:35:14;;;;;;;;;;;18.60;44.70;;;;;;5004812;28;19925;-75
2023/02/13 13:37:44;;;;;;;;;;;18.60;44.60;;;;;;5005132;28;19980;-75
2023/02/13 13:40:25;;;;;;;;;;;18.60;44.60;;;;;;5004818;28;19910;-76
2023/02/13 13:42:55;;;;;;;;;;;18.60;44.80;;;;;;5004678;28;19933;-74
2023/02/13 13:45:39;;;;;;;;;;;18.50;44.80;;;;;;5004606;28;20182;-75
2023/02/13 13:48:23;;;;;;;;;;;18.60;44.70;;;;;;5004707;28;19918;-73
2023/02/13 13:50:49;;;;;;;;;;;18.60;44.60;;;;;;5004461;28;19909;-76
2023/02/13 13:53:19;;;;;;;;;;;18.70;44.40;;;;;;5003241;28;19925;-73
2023/02/13 13:55:57;;;;;;;;;;;18.80;44.40;;;;;;5005014;28;19949;-72
2023/02/13 13:58:31;;;;;;;;;;;18.80;44.20;;;;;;5004689;28;19910;-74
2023/02/13 14:01:09;;;;;;;;;;;18.80;44.20;;;;;;5004112;28;19912;-75
2023/02/13 14:03:35;;;;;;;;;;;18.70;44.60;;;;;;5003358;28;19984;-74
2023/02/13 14:06:03;;;;;;;;;;;18.60;44.80;;;;;;5004502;28;19940;-75
2023/02/13 14:08:43;;;;;;;;;;;18.60;44.90;;;;;;5004381;28;19940;-75
2023/02/13 14:11:26;;;;;;;;;;;18.50;44.90;;;;;;5004279;28;19910;-76
2023/02/13 14:13:52;;;;;;;;;;;18.50;45.00;;;;;;5002963;28;19908;-75
2023/02/13 14:16:36;;;;;;;;;;;18.50;45.00;;;;;;5004179;28;19910;-75
2023/02/13 14:19:02;;;;;;;;;;;18.40;45.10;;;;;;5003978;28;19902;-74
2023/02/13 14:21:28;;;;;;;;;;;18.40;45.20;;;;;;5003898;28;19949;-75
2023/02/13 14:23:56;;;;;;;;;;;18.30;45.30;;;;;;5003770;28;19933;-72
2023/02/13 14:26:30;;;;;;;;;;;18.40;45.30;;;;;;5003776;28;19944;-77
2023/02/13 14:28:57;;;;;;;;;;;18.40;45.30;;;;;;5003708;28;19909;-74
2023/02/13 14:31:28;;;;;;;;;;;18.40;45.20;;;;;;5003766;28;19912;-75
2023/02/13 14:33:55;;;;;;;;;;;18.40;45.10;;;;;;5003846;28;19917;-74
2023/02/13 14:36:21;;;;;;;;;;;18.40;45.10;;;;;;5003994;28;20225;-74
2023/02/13 14:39:17;;;;;;;;;;;18.40;45.10;;;;;;5003703;28;19902;-73
2023/02/13 14:41:42;;;;;;;;;;;18.40;45.20;;;;;;4994978;28;20315;-76
2023/02/13 14:44:28;;;;;;;;;;;18.40;45.30;;;;;;5003588;28;19917;-77
2023/02/13 14:46:54;;;;;;;;;;;18.40;45.30;;;;;;5003050;28;19909;-74
2023/02/13 14:49:20;;;;;;;;;;;18.40;45.20;;;;;;5003352;28;20154;-75
2023/02/13 14:51:48;;;;;;;;;;;18.40;45.20;;;;;;5003362;28;19933;-74
2023/02/13 14:54:25;;;;;;;;;;;18.40;45.30;;;;;;5003321;28;19992;-75
2023/02/13 14:56:52;;;;;;;;;;;18.40;45.20;;;;;;5003156;28;19906;-75
2023/02/13 14:59:21;;;;;;;;;;;18.40;45.20;;;;;;5002008;28;19909;-75
2023/02/13 15:01:52;;;;;;;;;;;18.40;45.20;;;;;;5002009;28;20288;-74
2023/02/13 15:04:21;;;;;;;;;;;18.40;45.30;;;;;;5003331;28;19902;-76
2023/02/13 15:06:47;;;;;;;;;;;18.30;45.40;;;;;;5003361;28;19909;-75
2023/02/13 15:09:33;;;;;;;;;;;18.30;45.60;;;;;;5002914;28;19909;-75
2023/02/13 15:11:59;;;;;;;;;;;18.20;45.60;;;;;;5002785;28;19977;-73
2023/02/13 15:14:32;;;;;;;;;;;18.20;45.60;;;;;;5003425;28;19909;-74
2023/02/13 15:17:05;;;;;;;;;;;18.20;45.60;;;;;;5003112;28;19969;-77